createdAt,value
2022-08-05T00:01:28.633Z,8.83
2022-08-05T00:03:57.158Z,7.90
2022-08-05T00:06:32.494Z,7.30
2022-08-05T00:08:58.375Z,8.60
2022-08-05T00:11:34.846Z,7.40
2022-08-05T00:14:00.577Z,7.87
2022-08-05T00:16:35.467Z,7.67
2022-08-05T00:19:03.626Z,5.87
2022-08-05T00:21:36.013Z,7.45
2022-08-05T00:24:10.279Z,7.35
2022-08-05T00:26:38.470Z,7.20
2022-08-05T00:29:08.245Z,8.53
2022-08-05T00:31:54.290Z,8.30
2022-08-05T00:34:53.547Z,6.20
2022-08-05T00:37:12.908Z,6.50
2022-08-05T00:39:14.305Z,9.27
2022-08-05T00:41:54.885Z,8.23
2022-08-05T00:44:18.240Z,7.33
2022-08-05T00:46:54.291Z,6.37
2022-08-05T00:49:21.526Z,5.30
2022-08-05T00:51:52.400Z,6.83
2022-08-05T00:54:22.877Z,6.40
2022-08-05T00:56:54.347Z,9.13
2022-08-05T00:59:24.490Z,6.55
2022-08-05T01:01:54.309Z,7.73
2022-08-05T01:04:26.847Z,5.15
2022-08-05T01:06:55.635Z,6.17
2022-08-05T01:09:25.469Z,7.80
2022-08-05T01:12:04.775Z,8.70
2022-08-05T01:14:39.873Z,5.57
2022-08-05T01:17:25.710Z,8.87
2022-08-05T01:20:03.581Z,6.45
2022-08-05T01:22:57.305Z,7.03
2022-08-05T01:25:59.875Z,6.80
2022-08-05T01:28:35.510Z,7.83
2022-08-05T01:31:44.564Z,9.55
2022-08-05T01:34:26.757Z,6.92
2022-08-05T01:37:05.187Z,9.50
2022-08-05T01:39:46.048Z,8.27
2022-08-05T01:42:13.863Z,7.40
2022-08-05T01:44:54.309Z,5.43
2022-08-05T01:47:21.577Z,8.70
2022-08-05T01:50:02.296Z,7.20
2022-08-05T01:52:27.797Z,6.23
2022-08-05T01:55:00.921Z,7.97
2022-08-05T01:58:18.772Z,8.20
2022-08-05T02:00:11.559Z,6.07
2022-08-05T02:02:46.549Z,6.73
2022-08-05T02:05:15.645Z,11.77
2022-08-05T02:07:56.308Z,6.57
2022-08-05T02:10:18.085Z,8.43
2022-08-05T02:12:55.788Z,10.15
2022-08-05T02:15:33.513Z,10.40
2022-08-05T02:18:31.766Z,10.58
2022-08-05T02:20:55.551Z,9.53
2022-08-05T02:23:30.095Z,9.73
2022-08-05T02:26:04.313Z,8.68
2022-08-05T02:28:41.673Z,9.83
2022-08-05T02:31:22.351Z,6.70
2022-08-05T02:33:57.207Z,8.30
2022-08-05T02:36:31.676Z,6.53
2022-08-05T02:39:01.142Z,12.27
2022-08-05T02:41:42.819Z,7.93
2022-08-05T02:44:13.527Z,6.20
2022-08-05T02:46:53.286Z,8.27
2022-08-05T02:49:18.601Z,9.70
2022-08-05T02:52:04.471Z,8.73
2022-08-05T02:54:36.374Z,6.73
2022-08-05T02:56:55.935Z,7.40
2022-08-05T02:59:27.834Z,6.60
2022-08-05T03:02:00.569Z,7.23
2022-08-05T03:04:30.788Z,10.83
2022-08-05T03:07:00.708Z,8.17
2022-08-05T03:09:38.196Z,6.33
2022-08-05T03:12:02.894Z,9.27
2022-08-05T03:14:32.961Z,10.53
2022-08-05T03:17:07.334Z,7.17
2022-08-05T03:19:36.114Z,7.33
2022-08-05T03:22:16.380Z,7.00
2022-08-05T03:24:38.304Z,9.23
2022-08-05T03:27:08.260Z,7.77
2022-08-05T03:29:45.821Z,9.97
2022-08-05T03:32:14.347Z,7.80
2022-08-05T03:34:50.820Z,7.03
2022-08-05T03:37:17.530Z,8.63
2022-08-05T03:39:59.096Z,6.23
2022-08-05T03:42:31.991Z,6.90
2022-08-05T03:45:01.500Z,8.88
2022-08-05T03:47:35.462Z,10.93
2022-08-05T03:50:03.792Z,8.93
2022-08-05T03:55:11.370Z,8.35
2022-08-05T03:56:05.518Z,6.93
2022-08-05T03:57:46.703Z,8.50
2022-08-05T04:00:17.251Z,10.75
2022-08-05T04:02:57.777Z,10.63
2022-08-05T04:05:23.104Z,9.53
2022-08-05T04:07:57.995Z,8.95
2022-08-05T04:10:24.517Z,11.13
2022-08-05T04:12:58.888Z,7.33
2022-08-05T04:15:32.969Z,8.15
2022-08-05T04:18:03.797Z,9.60
2022-08-05T04:20:35.268Z,5.60
2022-08-05T04:23:05.476Z,7.93
2022-08-05T04:25:56.592Z,7.07
2022-08-05T04:28:11.351Z,9.77
2022-08-05T04:30:39.593Z,9.27
2022-08-05T04:33:09.429Z,7.97
2022-08-05T04:36:11.276Z,8.00
2022-08-05T04:38:12.030Z,6.35
2022-08-05T04:40:47.881Z,6.03
2022-08-05T04:43:16.482Z,8.33
2022-08-05T04:45:48.953Z,8.50
2022-08-05T04:48:18.482Z,5.87
2022-08-05T04:51:03.237Z,8.80
2022-08-05T04:53:22.713Z,8.93
2022-08-05T04:56:32.979Z,13.08
2022-08-05T04:58:24.324Z,6.92
2022-08-05T05:00:54.166Z,4.87
2022-08-05T05:03:23.960Z,7.10
2022-08-05T05:06:35.868Z,9.20
2022-08-05T05:08:29.968Z,8.65
2022-08-05T05:10:56.796Z,5.23
2022-08-05T05:13:26.640Z,8.07
2022-08-05T05:16:02.193Z,4.97
2022-08-05T05:18:33.166Z,8.33
2022-08-05T05:21:00.793Z,5.03
2022-08-05T05:23:39.407Z,9.20
2022-08-05T05:26:02.096Z,5.33
2022-08-05T05:28:34.289Z,8.37
2022-08-05T05:31:05.615Z,9.57
2022-08-05T05:33:59.696Z,7.93
2022-08-05T05:36:08.438Z,6.92
2022-08-05T05:38:40.083Z,8.20
2022-08-05T05:41:12.213Z,7.30
2022-08-05T05:43:57.502Z,11.40
2022-08-05T05:46:17.530Z,7.03
2022-08-05T05:48:48.192Z,10.03
2022-08-05T05:51:23.724Z,7.10
2022-08-05T05:53:58.604Z,9.07
2022-08-05T05:56:32.732Z,10.30
2022-08-05T05:58:58.675Z,6.08
2022-08-05T06:01:36.951Z,6.70
2022-08-05T06:04:03.712Z,6.37
2022-08-05T06:06:34.775Z,9.73
2022-08-05T06:09:08.360Z,7.20
2022-08-05T06:11:39.375Z,16.63
2022-08-05T06:14:11.449Z,7.30
2022-08-05T06:16:41.216Z,7.23
2022-08-05T06:19:12.745Z,7.07
2022-08-05T06:21:49.742Z,12.23
2022-08-05T06:24:16.558Z,8.80
2022-08-05T06:26:51.241Z,7.73
2022-08-05T06:29:42.982Z,6.80
2022-08-05T06:31:51.079Z,6.87
2022-08-05T06:34:20.921Z,9.13
2022-08-05T06:36:57.566Z,5.67
2022-08-05T06:39:22.328Z,11.27
2022-08-05T06:41:53.712Z,6.17
2022-08-05T06:44:23.176Z,7.83
2022-08-05T06:46:54.346Z,10.83
2022-08-05T06:50:02.017Z,5.73
2022-08-05T06:51:57.087Z,6.17
2022-08-05T06:54:28.266Z,6.80
2022-08-05T06:57:58.118Z,6.80
2022-08-05T06:59:30.858Z,7.03
2022-08-05T07:02:02.331Z,8.43
2022-08-05T07:04:32.102Z,6.13
2022-08-05T07:07:02.461Z,8.85
2022-08-05T07:09:37.359Z,7.78
2022-08-05T07:12:06.641Z,4.40
2022-08-05T07:14:54.105Z,5.60
2022-08-05T07:17:59.459Z,5.33
2022-08-05T07:22:30.156Z,9.55
2022-08-05T07:25:23.028Z,8.57
2022-08-05T07:28:00.680Z,6.17
2022-08-05T07:30:22.331Z,7.67
2022-08-05T07:32:38.776Z,3.95
2022-08-05T07:36:02.517Z,7.17
2022-08-05T07:37:47.240Z,6.27
2022-08-05T07:40:26.623Z,3.25
2022-08-05T07:42:49.184Z,5.53
2022-08-05T07:45:56.639Z,6.60
2022-08-05T07:47:55.807Z,3.67
2022-08-05T07:50:28.854Z,4.58
2022-08-05T07:52:56.054Z,5.87
2022-08-05T07:55:44.335Z,9.05
2022-08-05T07:58:03.061Z,5.85
2022-08-05T08:00:29.641Z,5.97
2022-08-05T08:03:14.960Z,3.90
2022-08-05T08:05:30.733Z,4.85
2022-08-05T08:08:03.278Z,2.33
2022-08-05T08:10:32.750Z,4.40
2022-08-05T08:13:02.456Z,2.65
2022-08-05T08:16:33.505Z,4.10
2022-08-05T08:18:13.723Z,4.35
2022-08-05T08:20:45.220Z,5.92
2022-08-05T08:23:11.577Z,3.77
2022-08-05T08:26:00.197Z,3.37
2022-08-05T08:28:18.249Z,2.92
2022-08-05T08:30:47.862Z,3.65
2022-08-05T08:33:16.249Z,4.60
2022-08-05T08:35:52.741Z,4.05
2022-08-05T08:38:17.435Z,4.65
2022-08-05T08:40:51.693Z,3.90
2022-08-05T08:45:17.947Z,5.27
2022-08-05T08:45:55.233Z,4.90
2022-08-05T08:49:03.251Z,4.53
2022-08-05T08:51:22.115Z,4.80
2022-08-05T08:53:31.410Z,5.23
2022-08-05T08:56:06.028Z,3.20
2022-08-05T08:58:37.578Z,2.30
2022-08-05T09:01:11.092Z,6.30
2022-08-05T09:03:45.300Z,5.00
2022-08-05T09:06:18.512Z,8.67
2022-08-05T09:08:44.509Z,3.53
2022-08-05T09:11:14.994Z,4.20
2022-08-05T09:14:10.359Z,4.00
2022-08-05T09:16:16.868Z,1.70
2022-08-05T09:18:48.515Z,4.13
2022-08-05T09:21:21.261Z,3.77
2022-08-05T09:23:52.775Z,3.17
2022-08-05T09:26:23.187Z,3.37
2022-08-05T09:28:57.310Z,3.63
2022-08-05T09:32:42.167Z,1.33
2022-08-05T09:34:01.775Z,2.85
2022-08-05T09:36:55.716Z,2.63
2022-08-05T09:39:21.985Z,2.20
2022-08-05T09:41:59.939Z,4.40
2022-08-05T09:44:38.773Z,0.80
2022-08-05T09:47:17.337Z,3.87
2022-08-05T09:50:01.503Z,1.97
2022-08-05T09:52:31.167Z,1.83
2022-08-05T09:55:06.418Z,2.10
2022-08-05T09:57:45.151Z,3.80
2022-08-05T10:00:19.270Z,2.00
2022-08-05T10:02:51.866Z,1.60
2022-08-05T10:05:24.419Z,1.40
2022-08-05T10:08:35.823Z,3.13
2022-08-05T10:10:34.782Z,0.97
2022-08-05T10:13:09.688Z,2.60
2022-08-05T10:15:41.663Z,1.07
2022-08-05T10:18:23.600Z,2.15
2022-08-05T10:20:56.586Z,1.43
2022-08-05T10:23:59.052Z,3.83
2022-08-05T10:26:14.261Z,2.47
2022-08-05T10:28:45.036Z,1.20
2022-08-05T10:32:47.910Z,0.97
2022-08-05T10:33:52.291Z,1.23
2022-08-05T10:36:23.767Z,1.47
2022-08-05T10:38:55.008Z,1.20
2022-08-05T10:41:27.972Z,1.93
2022-08-05T10:44:07.724Z,0.53
2022-08-05T10:46:54.535Z,3.40
2022-08-05T10:49:33.078Z,1.43
2022-08-05T10:52:00.647Z,1.97
2022-08-05T10:54:57.012Z,1.20
2022-08-05T10:57:30.982Z,0.40
2022-08-05T11:00:20.485Z,1.33
2022-08-05T11:03:25.858Z,2.27
2022-08-05T11:05:41.490Z,0.57
2022-08-05T11:08:34.330Z,1.75
2022-08-05T11:10:50.397Z,1.37
2022-08-05T11:13:19.174Z,1.70
2022-08-05T11:16:00.937Z,0.63
2022-08-05T11:18:34.275Z,5.40
2022-08-05T11:21:12.019Z,2.25
2022-08-05T11:24:04.787Z,1.27
2022-08-05T11:26:28.710Z,0.40
2022-08-05T11:29:06.722Z,3.75
2022-08-05T11:31:56.930Z,0.37
2022-08-05T11:34:08.277Z,1.60
2022-08-05T11:36:47.163Z,1.03
2022-08-05T11:39:38.149Z,5.47
2022-08-05T11:42:11.457Z,1.42
2022-08-05T11:44:54.133Z,2.67
2022-08-05T11:47:19.935Z,5.70
2022-08-05T11:49:50.915Z,1.87
2022-08-05T11:52:31.007Z,0.87
2022-08-05T11:55:07.555Z,3.03
2022-08-05T11:58:08.074Z,0.93
2022-08-05T12:00:08.429Z,2.55
2022-08-05T12:02:40.165Z,1.53
2022-08-05T12:05:18.082Z,0.90
2022-08-05T12:08:09.295Z,3.03
2022-08-05T12:10:17.816Z,0.95
2022-08-05T12:12:59.536Z,1.83
2022-08-05T12:15:38.256Z,0.93
2022-08-05T12:18:03.041Z,0.53
2022-08-05T12:20:33.737Z,9.60
2022-08-05T12:25:56.963Z,0.70
2022-08-05T12:28:37.591Z,1.57
2022-08-05T12:31:07.536Z,2.10
2022-08-05T12:33:38.914Z,1.53
2022-08-05T12:36:11.321Z,1.37
2022-08-05T12:38:41.617Z,4.33
2022-08-05T12:41:14.781Z,0.53
2022-08-05T12:43:55.046Z,1.83
2022-08-05T12:46:29.363Z,3.12
2022-08-05T12:49:05.702Z,4.87
2022-08-05T12:52:13.117Z,0.90
2022-08-05T12:54:14.892Z,2.35
2022-08-05T12:56:45.186Z,4.50
2022-08-05T12:59:46.477Z,0.60
2022-08-05T13:02:07.945Z,2.97
2022-08-05T13:04:41.813Z,0.70
2022-08-05T13:07:19.497Z,2.53
2022-08-05T13:09:56.995Z,4.00
2022-08-05T13:12:28.409Z,1.53
2022-08-05T13:15:05.709Z,5.35
2022-08-05T13:17:41.810Z,2.73
2022-08-05T13:20:09.316Z,2.40
2022-08-05T13:22:46.322Z,0.70
2022-08-05T13:25:21.959Z,1.05
2022-08-05T13:27:52.791Z,1.23
2022-08-05T13:30:32.957Z,3.63
2022-08-05T13:32:57.203Z,3.60
2022-08-05T13:35:42.505Z,1.17
2022-08-05T13:38:04.866Z,4.27
2022-08-05T13:40:49.950Z,0.50
2022-08-05T13:43:03.172Z,2.33
2022-08-05T13:45:38.692Z,0.60
2022-08-05T13:48:08.761Z,0.78
2022-08-05T13:50:39.424Z,2.53
2022-08-05T13:53:15.997Z,1.98
2022-08-05T13:55:50.118Z,2.83
2022-08-05T13:58:13.074Z,3.08
2022-08-05T14:00:44.529Z,2.33
2022-08-05T14:03:16.122Z,1.63
2022-08-05T14:06:24.529Z,3.25
2022-08-05T14:08:20.155Z,1.78
2022-08-05T14:10:49.676Z,2.57
2022-08-05T14:13:19.439Z,3.80
2022-08-05T14:16:08.353Z,7.00
2022-08-05T14:18:23.043Z,2.97
2022-08-05T14:20:54.829Z,1.73
2022-08-05T14:23:28.078Z,1.93
2022-08-05T14:25:59.576Z,2.90
2022-08-05T14:28:30.660Z,1.40
2022-08-05T14:31:01.518Z,0.60
2022-08-05T14:33:56.322Z,1.33
2022-08-05T14:36:05.747Z,0.90
2022-08-05T14:38:37.194Z,1.30
2022-08-05T14:41:08.178Z,2.67
2022-08-05T14:43:59.519Z,2.50
2022-08-05T14:46:10.906Z,2.77
2022-08-05T14:48:41.447Z,1.60
2022-08-05T14:51:11.312Z,1.70
2022-08-05T14:53:44.383Z,2.80
2022-08-05T14:56:14.080Z,0.75
2022-08-05T14:58:47.809Z,2.30
2022-08-05T15:01:16.272Z,2.05
2022-08-05T15:03:46.589Z,2.33
2022-08-05T15:06:17.750Z,1.67
2022-08-05T15:08:58.656Z,2.27
2022-08-05T15:11:20.691Z,2.47
2022-08-05T15:13:52.162Z,2.90
2022-08-05T15:16:22.707Z,1.42
2022-08-05T15:18:52.660Z,2.97
2022-08-05T15:21:22.530Z,2.07
2022-08-05T15:23:54.086Z,3.50
2022-08-05T15:26:32.120Z,2.20
2022-08-05T15:28:55.245Z,0.97
2022-08-05T15:31:24.778Z,0.70
2022-08-05T15:34:18.593Z,1.90
2022-08-05T15:36:27.686Z,1.50
2022-08-05T15:40:40.991Z,1.20
2022-08-05T15:41:57.451Z,1.17
2022-08-05T15:44:00.657Z,0.93
2022-08-05T15:46:30.961Z,0.37
2022-08-05T15:49:09.900Z,0.73
2022-08-05T15:52:10.406Z,1.93
2022-08-05T15:54:08.407Z,6.53
2022-08-05T15:56:36.374Z,1.30
2022-08-05T15:59:06.424Z,3.15
2022-08-05T16:01:39.457Z,2.05
2022-08-05T16:04:10.432Z,1.94
2022-08-05T16:06:40.362Z,2.60
2022-08-05T16:09:10.608Z,2.05
2022-08-05T16:11:43.373Z,2.22
2022-08-05T16:14:17.105Z,2.30
2022-08-05T16:16:44.072Z,1.93
2022-08-05T16:19:25.590Z,2.80
2022-08-05T16:22:00.220Z,2.50
2022-08-05T16:24:40.259Z,0.70
2022-08-05T16:26:54.460Z,0.40
2022-08-05T16:29:26.549Z,1.93
2022-08-05T16:31:57.779Z,3.17
2022-08-05T16:34:28.034Z,2.87
2022-08-05T16:36:57.807Z,0.40
2022-08-05T16:40:04.463Z,5.60
2022-08-05T16:42:15.769Z,1.37
2022-08-05T16:44:31.536Z,5.63
2022-08-05T16:47:01.346Z,1.63
2022-08-05T16:49:31.184Z,3.07
2022-08-05T16:52:01.262Z,2.65
2022-08-05T16:54:33.111Z,2.17
2022-08-05T16:57:03.054Z,3.60
2022-08-05T16:59:34.516Z,3.60
2022-08-05T17:02:08.155Z,2.74
2022-08-05T17:04:40.416Z,3.13
2022-08-05T17:07:11.444Z,2.27
2022-08-05T17:09:57.844Z,2.00
2022-08-05T17:12:13.589Z,3.02
2022-08-05T17:14:45.074Z,1.63
2022-08-05T17:17:15.425Z,2.13
2022-08-05T17:19:46.402Z,2.90
2022-08-05T17:22:17.823Z,2.87
2022-08-05T17:24:57.009Z,2.47
2022-08-05T17:27:19.896Z,4.60
2022-08-05T17:29:59.490Z,1.30
2022-08-05T17:32:21.525Z,3.20
2022-08-05T17:34:53.069Z,4.27
2022-08-05T17:37:40.066Z,2.33
2022-08-05T17:39:55.182Z,3.13
2022-08-05T17:42:32.383Z,1.97
2022-08-05T17:44:58.159Z,1.00
2022-08-05T17:47:28.259Z,1.13
2022-08-05T17:50:10.457Z,3.77
2022-08-05T17:52:31.336Z,1.23
2022-08-05T17:55:03.095Z,1.37
2022-08-05T17:57:33.011Z,0.83
2022-08-05T18:00:05.785Z,1.95
2022-08-05T18:02:35.410Z,1.77
2022-08-05T18:05:07.951Z,1.30
2022-08-05T18:07:42.228Z,1.30
2022-08-05T18:10:20.436Z,3.33
2022-08-05T18:12:44.218Z,1.43
2022-08-05T18:15:15.410Z,2.17
2022-08-05T18:18:01.415Z,2.83
2022-08-05T18:20:16.493Z,1.90
2022-08-05T18:22:54.845Z,2.50
2022-08-05T18:25:18.171Z,2.67
2022-08-05T18:27:52.599Z,4.63
2022-08-05T18:30:19.928Z,2.50
2022-08-05T18:32:53.322Z,3.87
2022-08-05T18:35:49.366Z,3.37
2022-08-05T18:37:52.776Z,3.90
2022-08-05T18:40:34.071Z,1.75
2022-08-05T18:42:56.631Z,1.50
2022-08-05T18:45:41.847Z,1.40
2022-08-05T18:47:58.496Z,2.70
2022-08-05T18:50:47.177Z,4.78
2022-08-05T18:53:22.207Z,6.40
2022-08-05T18:55:48.372Z,5.33
2022-08-05T18:58:18.606Z,1.43
2022-08-05T19:00:49.897Z,2.65
2022-08-05T19:03:19.662Z,2.63
2022-08-05T19:06:12.764Z,4.70
2022-08-05T19:08:30.759Z,2.50
2022-08-05T19:10:55.120Z,4.80
2022-08-05T19:13:25.809Z,6.05
2022-08-05T19:16:03.630Z,4.90
2022-08-05T19:18:28.863Z,3.80
2022-08-05T19:20:59.505Z,5.80
2022-08-05T19:24:08.091Z,3.13
2022-08-05T19:26:03.144Z,2.57
2022-08-05T19:28:34.554Z,3.47
2022-08-05T19:31:05.738Z,3.63
2022-08-05T19:33:37.626Z,2.45
2022-08-05T19:36:11.500Z,2.73
2022-08-05T19:38:43.797Z,5.72
2022-08-05T19:41:13.750Z,4.07
2022-08-05T19:44:06.429Z,3.43
2022-08-05T19:46:16.672Z,6.20
2022-08-05T19:48:48.415Z,2.93
2022-08-05T19:51:59.797Z,2.67
2022-08-05T19:54:04.242Z,3.47
2022-08-05T19:56:21.245Z,2.23
2022-08-05T19:58:54.054Z,3.83
2022-08-05T20:01:28.527Z,4.03
2022-08-05T20:03:55.873Z,3.47
2022-08-05T20:06:29.296Z,2.67
2022-08-05T20:09:00.871Z,4.63
2022-08-05T20:11:30.032Z,2.77
2022-08-05T20:14:12.762Z,2.87
2022-08-05T20:16:34.106Z,4.77
2022-08-05T20:19:04.232Z,4.97
2022-08-05T20:21:34.062Z,3.13
2022-08-05T20:24:07.163Z,3.57
2022-08-05T20:26:38.627Z,4.27
2022-08-05T20:29:08.415Z,7.70
2022-08-05T20:31:51.281Z,4.73
2022-08-05T20:34:12.704Z,5.50
2022-08-05T20:36:43.431Z,3.20
2022-08-05T20:39:16.790Z,4.73
2022-08-05T20:41:47.885Z,3.20
2022-08-05T20:44:29.592Z,6.05
2022-08-05T20:46:49.892Z,4.20
2022-08-05T20:49:24.454Z,5.10
2022-08-05T20:51:54.025Z,3.23
2022-08-05T20:54:43.673Z,4.40
2022-08-05T20:57:01.040Z,2.90
2022-08-05T21:00:10.351Z,5.10
2022-08-05T21:02:05.218Z,7.23
2022-08-05T21:04:36.998Z,5.08
2022-08-05T21:07:08.978Z,4.73
2022-08-05T21:09:53.498Z,4.67
2022-08-05T21:12:11.971Z,4.53
2022-08-05T21:14:42.078Z,4.97
2022-08-05T21:17:13.664Z,7.73
2022-08-05T21:19:47.889Z,5.77
2022-08-05T21:22:14.965Z,8.60
2022-08-05T21:24:48.921Z,4.23
2022-08-05T21:27:18.223Z,6.53
2022-08-05T21:29:50.908Z,5.23
2022-08-05T21:32:20.819Z,5.72
2022-08-05T21:35:06.688Z,7.90
2022-08-05T21:37:23.941Z,7.10
2022-08-05T21:39:53.821Z,8.60
2022-08-05T21:42:41.458Z,3.92
2022-08-05T21:44:55.086Z,2.70
2022-08-05T21:47:55.273Z,5.30
2022-08-05T21:50:01.266Z,6.33
2022-08-05T21:52:30.386Z,3.10
2022-08-05T21:55:06.996Z,7.83
2022-08-05T21:57:32.889Z,5.80
2022-08-05T22:00:05.942Z,4.03
2022-08-05T22:02:37.880Z,3.75
2022-08-05T22:05:09.096Z,5.20
2022-08-05T22:07:58.401Z,5.47
2022-08-05T22:10:12.263Z,6.43
2022-08-05T22:12:44.761Z,7.23
2022-08-05T22:15:16.575Z,7.50
2022-08-05T22:17:48.808Z,10.50
2022-08-05T22:20:19.251Z,5.23
2022-08-05T22:23:16.758Z,6.75
2022-08-05T22:26:09.977Z,5.77
2022-08-05T22:28:29.430Z,3.90
2022-08-05T22:31:02.355Z,5.87
2022-08-05T22:33:55.818Z,3.57
2022-08-05T22:36:02.150Z,4.27
2022-08-05T22:38:33.126Z,4.42
2022-08-05T22:41:09.607Z,5.73
2022-08-05T22:43:36.736Z,5.27
2022-08-05T22:46:13.043Z,3.67
2022-08-05T22:48:40.126Z,4.27
2022-08-05T22:51:16.085Z,2.90
2022-08-05T22:53:42.838Z,6.30
2022-08-05T22:56:14.055Z,4.13
2022-08-05T22:58:43.769Z,3.30
2022-08-05T23:01:13.743Z,5.53
2022-08-05T23:03:57.665Z,7.00
2022-08-05T23:06:15.135Z,7.27
2022-08-05T23:08:46.575Z,5.43
2022-08-05T23:11:18.042Z,9.53
2022-08-05T23:13:48.505Z,7.60
2022-08-05T23:16:26.182Z,8.88
2022-08-05T23:18:52.858Z,9.43
2022-08-05T23:21:24.609Z,7.87
2022-08-05T23:23:56.053Z,8.23
2022-08-05T23:26:25.869Z,8.07
2022-08-05T23:28:57.222Z,11.70
2022-08-05T23:31:28.487Z,5.43
2022-08-05T23:34:06.170Z,5.13
2022-08-05T23:36:38.389Z,4.25
2022-08-05T23:39:03.713Z,6.93
2022-08-05T23:41:34.392Z,6.62
2022-08-05T23:44:08.650Z,8.77
2022-08-05T23:46:39.375Z,8.73
2022-08-05T23:49:16.054Z,8.07
2022-08-05T23:51:58.661Z,4.30
2022-08-05T23:54:36.354Z,10.97
2022-08-05T23:57:03.539Z,10.10
2022-08-05T23:59:37.561Z,8.03
